Time;durP1;ratioP1;P1;durP2;ratioP2;P2;SDS_P1;SDS_P2;PMS_P1;PMS_P2;Temp;Humidity;BMP_temperature;BMP_pressure;BME280_temperature;BME280_humidity;BME280_pressure;Samples;Min_cycle;Max_cycle;Signal;HPM_P1;HPM_P2
2023/12/04 00:01:31;;;;;;;53.33;29.57;;;;;;;-4.31;74.48;96418.59;4985030;28;20537;-68
2023/12/04 00:03:57;;;;;;;52.70;25.93;;;;;;;-4.40;72.14;96414.19;4985222;28;20173;-69
2023/12/04 00:06:23;;;;;;;49.00;25.77;;;;;;;-4.16;70.11;96411.13;4984417;28;20846;-69
2023/12/04 00:08:48;;;;;;;46.93;23.53;;;;;;;-4.23;69.38;96411.00;4984974;28;20414;-68
2023/12/04 00:11:14;;;;;;;44.67;24.10;;;;;;;-4.11;67.13;96406.94;4987186;28;20307;-69
2023/12/04 00:13:39;;;;;;;36.80;22.27;;;;;;;-3.88;66.94;96414.91;4987393;28;20176;-68
2023/12/04 00:16:05;;;;;;;38.87;23.07;;;;;;;-3.97;64.70;96411.34;4987255;28;20306;-68
2023/12/04 00:18:31;;;;;;;30.00;19.13;;;;;;;-4.18;65.53;96419.63;4989479;28;20262;-69
2023/12/04 00:20:57;;;;;;;36.70;20.93;;;;;;;-4.12;64.81;96407.75;4991292;28;20469;-70
2023/12/04 00:23:22;;;;;;;43.03;23.23;;;;;;;-4.09;64.63;96401.81;4992113;28;20206;-71
2023/12/04 00:25:47;;;;;;;39.37;23.77;;;;;;;-3.87;65.76;96400.41;4991367;28;20200;-68
2023/12/04 00:28:13;;;;;;;35.53;21.70;;;;;;;-4.16;64.92;96402.56;4990313;28;20861;-68
2023/12/04 00:30:38;;;;;;;43.07;20.37;;;;;;;-4.50;66.39;96400.41;4987332;28;20188;-69
2023/12/04 00:33:04;;;;;;;41.10;23.67;;;;;;;-4.77;66.37;96392.31;4992951;28;20180;-68
2023/12/04 00:35:29;;;;;;;36.53;20.47;;;;;;;-4.29;65.20;96394.72;5006530;28;21012;-69
2023/12/04 00:37:55;;;;;;;36.87;21.67;;;;;;;-4.15;64.80;96383.81;5006491;28;20191;-68
2023/12/04 00:40:20;;;;;;;40.60;21.70;;;;;;;-4.72;65.92;96391.56;5006817;28;20185;-70
2023/12/04 00:42:45;;;;;;;40.50;21.10;;;;;;;-4.99;66.71;96384.28;4998543;28;20173;-69
2023/12/04 00:45:11;;;;;;;42.33;21.77;;;;;;;-4.65;66.14;96382.28;4986705;28;20203;-69
2023/12/04 00:47:36;;;;;;;39.20;20.77;;;;;;;-5.21;66.66;96383.09;4986168;28;20169;-69
2023/12/04 00:50:02;;;;;;;35.27;19.80;;;;;;;-5.15;67.86;96374.63;4986827;28;20267;-69
2023/12/04 00:52:27;;;;;;;44.43;21.10;;;;;;;-4.90;66.17;96379.31;4986647;28;20192;-69
2023/12/04 00:54:53;;;;;;;44.20;22.27;;;;;;;-4.90;66.50;96378.47;4986572;28;20201;-69
2023/12/04 00:57:19;;;;;;;40.10;22.93;;;;;;;-4.73;67.11;96369.34;4986813;28;20569;-68
2023/12/04 00:59:44;;;;;;;49.63;20.60;;;;;;;-5.00;70.77;96369.78;4987696;28;20424;-68
2023/12/04 01:02:09;;;;;;;48.60;21.90;;;;;;;-5.03;73.94;96358.63;4986797;28;20558;-68
2023/12/04 01:04:35;;;;;;;40.30;20.87;;;;;;;-4.38;72.37;96361.28;4986633;28;20212;-68
2023/12/04 01:07:01;;;;;;;42.10;20.63;;;;;;;-5.22;74.14;96367.69;4986613;28;20173;-69
2023/12/04 01:09:26;;;;;;;31.00;18.87;;;;;;;-4.87;75.24;96352.91;4986885;28;20185;-68
2023/12/04 01:11:53;;;;;;;49.83;20.30;;;;;;;-5.14;74.02;96358.47;4986980;28;20473;-68
2023/12/04 01:14:19;;;;;;;38.17;19.80;;;;;;;-5.14;74.88;96353.34;4986878;28;20547;-68
2023/12/04 01:16:44;;;;;;;41.83;20.60;;;;;;;-4.91;73.63;96351.16;4986264;28;20490;-68
2023/12/04 01:19:09;;;;;;;32.50;18.77;;;;;;;-5.26;75.34;96348.03;4986749;28;20605;-68
2023/12/04 01:21:35;;;;;;;46.83;18.63;;;;;;;-5.66;75.79;96349.91;4986361;28;20180;-69
2023/12/04 01:24:00;;;;;;;32.40;18.33;;;;;;;-4.92;74.50;96345.16;4986994;28;20203;-69
2023/12/04 01:26:26;;;;;;;35.17;18.07;;;;;;;-4.74;73.94;96339.47;4989821;28;20288;-68
2023/12/04 01:28:51;;;;;;;47.13;18.83;;;;;;;-4.60;73.47;96339.66;4990209;28;20272;-69
2023/12/04 01:31:16;;;;;;;33.07;17.90;;;;;;;-4.84;73.07;96342.75;4990214;28;20187;-68
2023/12/04 01:33:42;;;;;;;30.33;16.63;;;;;;;-4.51;72.38;96336.38;5000456;28;20183;-69
2023/12/04 01:36:08;;;;;;;38.27;15.93;;;;;;;-4.93;73.15;96337.47;5009411;28;20230;-68
2023/12/04 01:38:33;;;;;;;30.80;16.90;;;;;;;-4.77;73.92;96333.44;5009486;28;20204;-69
2023/12/04 01:40:58;;;;;;;34.90;17.10;;;;;;;-4.68;72.89;96337.00;5009395;28;20180;-70
2023/12/04 01:43:24;;;;;;;27.47;17.10;;;;;;;-4.70;72.28;96336.13;4996356;28;20181;-69
2023/12/04 01:45:51;;;;;;;30.20;16.77;;;;;;;-4.46;71.78;96329.63;4989778;28;20710;-68
2023/12/04 01:48:17;;;;;;;30.83;17.07;;;;;;;-4.61;71.16;96339.63;4989762;28;20177;-69
2023/12/04 01:50:43;;;;;;;30.47;17.07;;;;;;;-4.81;73.03;96326.56;4989844;28;20412;-69
2023/12/04 01:53:10;;;;;;;30.43;16.83;;;;;;;-4.42;71.18;96326.22;4990074;28;20408;-67
2023/12/04 01:55:37;;;;;;;28.87;18.33;;;;;;;-4.48;71.72;96327.03;4989918;28;20439;-69
2023/12/04 01:58:03;;;;;;;34.33;19.13;;;;;;;-4.39;71.57;96321.16;4990677;28;20485;-69
2023/12/04 02:00:30;;;;;;;29.70;15.90;;;;;;;-5.33;73.79;96314.69;4989641;28;20428;-69
2023/12/04 02:02:56;;;;;;;24.40;16.10;;;;;;;-5.01;74.17;96316.00;4989661;28;20593;-69
2023/12/04 02:05:22;;;;;;;30.87;16.50;;;;;;;-4.70;72.62;96309.63;4989189;28;20487;-69
2023/12/04 02:07:48;;;;;;;27.83;16.33;;;;;;;-4.40;70.07;96318.56;4988989;28;20173;-69
2023/12/04 02:10:13;;;;;;;29.37;13.80;;;;;;;-4.53;70.88;96326.09;4989137;28;20423;-68
2023/12/04 02:12:39;;;;;;;29.23;15.77;;;;;;;-4.56;70.98;96336.31;4989269;28;20180;-69
2023/12/04 02:15:05;;;;;;;28.17;15.27;;;;;;;-4.93;72.19;96327.25;4989312;28;20193;-69
2023/12/04 02:17:32;;;;;;;27.40;14.80;;;;;;;-5.00;72.12;96328.84;4988658;28;20561;-68
2023/12/04 02:19:58;;;;;;;28.17;16.17;;;;;;;-4.99;71.55;96329.69;4989409;28;20504;-68
2023/12/04 02:22:23;;;;;;;27.63;15.73;;;;;;;-4.98;70.55;96329.72;4989125;28;20412;-69
2023/12/04 02:24:49;;;;;;;32.23;17.03;;;;;;;-5.46;72.98;96333.19;4988927;28;20189;-69
2023/12/04 02:27:22;;;;;;;30.47;15.03;;;;;;;-5.32;72.61;96326.63;4988622;28;20236;-69
2023/12/04 02:29:56;;;;;;;29.07;17.30;;;;;;;-4.60;69.43;96319.19;4989000;28;20183;-68
2023/12/04 02:32:23;;;;;;;23.90;14.80;;;;;;;-4.41;68.07;96322.84;4988813;28;20470;-69
2023/12/04 02:34:49;;;;;;;30.90;15.50;;;;;;;-4.57;67.83;96313.25;5008047;28;20537;-70
2023/12/04 02:37:17;;;;;;;25.47;15.13;;;;;;;-4.75;68.78;96308.72;5008097;28;20553;-68
2023/12/04 02:39:43;;;;;;;29.53;16.97;;;;;;;-5.34;70.73;96306.97;5008287;28;20480;-67
2023/12/04 02:42:08;;;;;;;25.77;14.47;;;;;;;-5.15;70.96;96320.91;5004968;28;20440;-67
2023/12/04 02:44:33;;;;;;;29.13;15.77;;;;;;;-5.15;70.87;96315.78;4988746;28;20455;-68
2023/12/04 02:46:59;;;;;;;30.67;16.47;;;;;;;-5.22;71.78;96319.09;4988409;28;20524;-69
2023/12/04 02:49:24;;;;;;;25.77;14.40;;;;;;;-5.65;73.41;96321.78;4988544;28;20176;-68
2023/12/04 02:51:50;;;;;;;22.20;14.43;;;;;;;-5.45;72.33;96311.94;4988598;28;20188;-68
2023/12/04 02:54:15;;;;;;;29.57;14.27;;;;;;;-5.64;72.23;96315.00;4988592;28;20181;-69
2023/12/04 02:56:40;;;;;;;30.50;15.80;;;;;;;-5.87;73.20;96306.94;4987987;28;20226;-69
2023/12/04 02:59:06;;;;;;;23.30;14.53;;;;;;;-5.81;73.65;96312.13;4989033;28;20196;-68
2023/12/04 03:01:31;;;;;;;23.67;13.23;;;;;;;-5.06;71.90;96309.97;4988049;28;20644;-68
2023/12/04 03:03:57;;;;;;;28.80;15.57;;;;;;;-5.02;70.56;96297.25;4988227;28;20184;-68
2023/12/04 03:06:22;;;;;;;26.27;15.57;;;;;;;-4.81;70.54;96291.59;4987714;28;20177;-69
2023/12/04 03:08:48;;;;;;;24.77;14.77;;;;;;;-5.12;70.17;96292.84;4987840;28;20177;-71
2023/12/04 03:11:13;;;;;;;22.73;14.70;;;;;;;-4.86;69.25;96287.25;4987984;28;20172;-69
2023/12/04 03:13:38;;;;;;;27.40;16.27;;;;;;;-4.94;69.62;96288.00;4988339;28;20173;-67
2023/12/04 03:16:04;;;;;;;28.60;15.70;;;;;;;-4.98;69.42;96283.66;4987592;28;20212;-68
2023/12/04 03:18:30;;;;;;;21.87;14.23;;;;;;;-4.66;68.31;96290.91;4988238;28;20228;-69
2023/12/04 03:20:55;;;;;;;24.97;14.77;;;;;;;-5.36;69.75;96286.50;4989355;28;20181;-68
2023/12/04 03:23:20;;;;;;;29.93;14.70;;;;;;;-5.64;70.96;96282.63;4988425;28;20255;-68
2023/12/04 03:25:46;;;;;;;20.17;13.20;;;;;;;-5.61;71.76;96275.00;4988138;28;20295;-70
2023/12/04 03:28:13;;;;;;;22.87;15.47;;;;;;;-5.51;71.10;96268.34;4988041;28;20165;-68
2023/12/04 03:30:38;;;;;;;23.97;14.20;;;;;;;-5.15;69.97;96274.88;4987927;28;20204;-68
2023/12/04 03:33:04;;;;;;;28.13;15.93;;;;;;;-5.45;69.09;96265.06;4993050;28;20415;-69
2023/12/04 03:35:29;;;;;;;29.20;15.27;;;;;;;-5.48;71.57;96253.06;5007587;28;20228;-69
2023/12/04 03:37:54;;;;;;;27.73;15.50;;;;;;;-5.70;71.56;96240.78;5007474;28;20200;-69
2023/12/04 03:40:20;;;;;;;23.50;13.97;;;;;;;-5.00;70.28;96246.97;5007667;28;20180;-68
2023/12/04 03:42:45;;;;;;;21.63;13.77;;;;;;;-4.80;67.90;96239.53;4999118;28;20184;-68
2023/12/04 03:45:11;;;;;;;23.43;13.87;;;;;;;-4.62;66.79;96248.31;4987451;28;20192;-67
2023/12/04 03:47:36;;;;;;;22.43;13.47;;;;;;;-4.87;67.83;96245.41;4987002;28;20200;-68
2023/12/04 03:50:01;;;;;;;22.57;13.23;;;;;;;-4.52;66.36;96238.19;4987522;28;20895;-69
2023/12/04 03:52:27;;;;;;;30.63;16.50;;;;;;;-5.09;66.88;96238.31;4987657;28;20180;-69
2023/12/04 03:54:52;;;;;;;22.23;15.90;;;;;;;-5.08;68.01;96227.22;4986028;28;20196;-68
2023/12/04 03:57:18;;;;;;;24.00;15.47;;;;;;;-5.08;67.77;96225.50;4987087;28;20232;-68
2023/12/04 03:59:43;;;;;;;26.03;15.37;;;;;;;-5.81;70.45;96231.25;4988212;28;20742;-68
2023/12/04 04:02:09;;;;;;;23.10;16.30;;;;;;;-5.99;71.53;96225.84;4987866;28;20169;-67
2023/12/04 04:04:34;;;;;;;28.97;16.77;;;;;;;-5.94;72.34;96221.66;4987629;28;20173;-69
2023/12/04 04:06:59;;;;;;;25.50;15.63;;;;;;;-5.26;69.13;96202.25;4987002;28;20619;-68
2023/12/04 04:09:25;;;;;;;25.27;13.13;;;;;;;-5.14;68.35;96210.09;4987500;28;20211;-69
2023/12/04 04:11:50;;;;;;;21.63;13.40;;;;;;;-4.87;66.90;96201.06;4987422;28;20746;-69
2023/12/04 04:14:15;;;;;;;29.63;13.90;;;;;;;-5.34;68.38;96210.69;4987030;28;20203;-69
2023/12/04 04:16:41;;;;;;;26.20;14.70;;;;;;;-5.88;69.64;96216.63;4986802;28;20681;-69
2023/12/04 04:19:06;;;;;;;32.63;15.50;;;;;;;-5.57;69.38;96210.31;4987424;28;20169;-68
2023/12/04 04:21:32;;;;;;;24.87;14.70;;;;;;;-4.89;67.35;96208.69;4987500;28;20173;-69
2023/12/04 04:23:57;;;;;;;23.90;13.87;;;;;;;-4.86;66.69;96202.78;4987405;28;20302;-68
2023/12/04 04:26:22;;;;;;;23.70;13.60;;;;;;;-4.56;66.62;96199.72;4987103;28;20181;-68
2023/12/04 04:28:48;;;;;;;19.63;13.50;;;;;;;-4.48;64.99;96204.09;4987119;28;20226;-67
2023/12/04 04:31:13;;;;;;;20.17;11.70;;;;;;;-4.62;64.58;96207.34;4987268;28;20164;-68
2023/12/04 04:33:38;;;;;;;23.63;13.27;;;;;;;-4.32;64.57;96206.84;4997432;28;20183;-68
2023/12/04 04:36:04;;;;;;;22.17;12.20;;;;;;;-4.51;64.19;96200.66;5007053;28;20916;-70
2023/12/04 04:38:30;;;;;;;19.77;13.50;;;;;;;-4.98;65.67;96200.94;5006878;28;20217;-69
2023/12/04 04:40:55;;;;;;;20.07;13.83;;;;;;;-4.83;65.70;96187.47;5007030;28;20574;-69
2023/12/04 04:43:21;;;;;;;22.23;14.00;;;;;;;-5.40;66.13;96200.34;4995010;28;20231;-70
2023/12/04 04:45:46;;;;;;;21.73;13.90;;;;;;;-5.53;66.71;96206.09;4989414;28;20374;-69
2023/12/04 04:48:12;;;;;;;23.70;13.97;;;;;;;-5.06;66.50;96198.25;4991290;28;20179;-68
2023/12/04 04:50:37;;;;;;;23.17;13.70;;;;;;;-5.20;66.22;96204.88;4990389;28;20788;-68
2023/12/04 04:53:02;;;;;;;18.63;11.97;;;;;;;-5.09;65.74;96208.44;4993764;28;20211;-68
2023/12/04 04:55:28;;;;;;;20.23;13.40;;;;;;;-4.83;64.75;96206.22;4991087;28;20197;-69
2023/12/04 04:57:53;;;;;;;29.87;13.50;;;;;;;-5.32;66.50;96214.09;4990020;28;20276;-70
2023/12/04 05:00:19;;;;;;;23.60;13.17;;;;;;;-4.74;64.27;96202.94;5001630;28;20228;-69
2023/12/04 05:02:45;;;;;;;23.87;13.03;;;;;;;-5.02;63.69;96206.84;5009092;28;20186;-69
2023/12/04 05:05:11;;;;;;;20.27;13.27;;;;;;;-4.71;63.36;96211.50;5007620;28;20455;-68
2023/12/04 05:07:37;;;;;;;25.93;14.40;;;;;;;-5.38;63.18;96219.13;4999884;28;20207;-69
2023/12/04 05:10:02;;;;;;;23.87;13.67;;;;;;;-6.19;65.06;96211.03;5007271;28;20443;-68
2023/12/04 05:12:28;;;;;;;19.40;13.47;;;;;;;-6.07;64.79;96192.50;5003661;28;20184;-69
2023/12/04 05:14:53;;;;;;;27.57;13.80;;;;;;;-5.98;65.01;96190.09;5002037;28;20204;-69
2023/12/04 05:17:18;;;;;;;22.17;13.60;;;;;;;-6.04;65.81;96184.03;5006782;28;20741;-69
2023/12/04 05:19:44;;;;;;;20.27;12.93;;;;;;;-5.98;65.60;96177.31;5004985;28;20192;-67
2023/12/04 05:22:09;;;;;;;18.47;12.70;;;;;;;-5.85;66.61;96178.34;5007280;28;20545;-67
2023/12/04 05:24:35;;;;;;;22.00;13.57;;;;;;;-5.56;64.54;96183.06;5007551;28;20176;-70
2023/12/04 05:27:02;;;;;;;20.50;12.27;;;;;;;-5.73;64.81;96189.63;5007509;28;20176;-70
2023/12/04 05:29:27;;;;;;;21.37;14.20;;;;;;;-5.92;65.86;96189.31;5007842;28;20457;-68
2023/12/04 05:31:53;;;;;;;23.73;13.00;;;;;;;-5.83;65.97;96183.50;5009364;28;20958;-70
2023/12/04 05:34:18;;;;;;;25.57;15.70;;;;;;;-5.93;66.94;96179.06;5008177;28;20296;-69
2023/12/04 05:36:44;;;;;;;23.60;14.43;;;;;;;-5.70;65.80;96175.16;5007504;28;20192;-69
2023/12/04 05:39:09;;;;;;;21.77;14.40;;;;;;;-5.92;65.20;96162.91;5007075;28;20203;-70
2023/12/04 05:41:35;;;;;;;24.50;13.67;;;;;;;-6.52;67.28;96175.53;5009846;28;20192;-69
2023/12/04 05:44:01;;;;;;;24.03;14.57;;;;;;;-6.61;66.59;96163.47;4991605;28;20943;-69
2023/12/04 05:46:26;;;;;;;21.63;12.90;;;;;;;-6.28;67.27;96159.78;5008639;28;20275;-70
2023/12/04 05:48:51;;;;;;;22.57;13.73;;;;;;;-6.18;66.21;96159.13;5008646;28;20208;-68
2023/12/04 05:51:17;;;;;;;20.70;12.30;;;;;;;-6.58;68.23;96166.91;5005090;28;20254;-70
2023/12/04 05:53:42;;;;;;;25.47;16.27;;;;;;;-6.02;66.80;96157.69;5012331;28;20904;-69
2023/12/04 05:56:08;;;;;;;21.70;13.20;;;;;;;-5.66;65.59;96146.28;5011428;28;20240;-70
2023/12/04 05:58:34;;;;;;;21.37;12.60;;;;;;;-5.68;64.36;96147.09;5009289;28;20571;-70
2023/12/04 06:01:00;;;;;;;27.80;14.73;;;;;;;-5.87;64.58;96149.34;5011895;28;20442;-68
2023/12/04 06:03:25;;;;;;;19.60;11.93;;;;;;;-5.99;65.47;96141.53;5001733;28;20191;-69
2023/12/04 06:05:51;;;;;;;26.87;14.60;;;;;;;-5.90;66.00;96146.75;5013187;28;20203;-69
2023/12/04 06:08:16;;;;;;;23.70;14.40;;;;;;;-5.70;66.09;96144.50;5014332;28;20198;-69
2023/12/04 06:10:42;;;;;;;23.67;14.43;;;;;;;-5.71;64.97;96142.78;5006455;28;20207;-67
2023/12/04 06:13:07;;;;;;;24.80;13.80;;;;;;;-5.84;65.63;96140.88;5003776;28;20177;-69
2023/12/04 06:15:32;;;;;;;26.53;13.87;;;;;;;-5.97;64.80;96144.97;5005590;28;20283;-70
2023/12/04 06:17:58;;;;;;;22.23;13.80;;;;;;;-5.58;65.57;96148.94;5006375;28;20200;-69
2023/12/04 06:20:23;;;;;;;23.63;14.37;;;;;;;-5.56;64.92;96143.00;5006805;28;20230;-69
2023/12/04 06:22:49;;;;;;;28.80;15.03;;;;;;;-5.56;65.20;96137.03;5007419;28;20622;-70
2023/12/04 06:25:15;;;;;;;25.50;15.40;;;;;;;-5.77;65.52;96146.09;5005988;28;20219;-70
2023/12/04 06:27:41;;;;;;;25.33;14.57;;;;;;;-5.23;65.50;96128.97;5005875;28;20168;-70
2023/12/04 06:30:06;;;;;;;27.10;14.87;;;;;;;-5.36;65.58;96124.53;5006400;28;20430;-69
2023/12/04 06:32:32;;;;;;;29.00;15.80;;;;;;;-5.37;65.41;96115.13;5002600;28;20592;-70
2023/12/04 06:34:58;;;;;;;27.77;13.80;;;;;;;-5.55;64.89;96114.06;5008778;28;20299;-69
2023/12/04 06:37:24;;;;;;;27.63;14.90;;;;;;;-6.04;67.08;96110.81;5003283;28;20633;-70
2023/12/04 06:39:49;;;;;;;23.30;15.97;;;;;;;-6.14;67.11;96095.31;4989831;28;20193;-68
2023/12/04 06:42:15;;;;;;;21.30;14.90;;;;;;;-5.72;64.92;96104.41;5001340;28;20177;-71
2023/12/04 06:44:41;;;;;;;30.33;14.37;;;;;;;-5.52;65.94;96108.13;5005966;28;20191;-70
2023/12/04 06:47:08;;;;;;;25.40;14.73;;;;;;;-5.59;65.58;96109.75;4994628;28;20670;-69
2023/12/04 06:49:34;;;;;;;27.10;14.73;;;;;;;-5.54;64.34;96104.69;4998067;28;20168;-70
2023/12/04 06:52:00;;;;;;;25.80;14.10;;;;;;;-5.91;65.54;96100.75;5005419;28;20420;-70
2023/12/04 06:54:26;;;;;;;26.43;15.27;;;;;;;-5.91;66.65;96108.41;5008767;28;20203;-68
2023/12/04 06:56:51;;;;;;;31.37;16.43;;;;;;;-5.78;66.07;96100.94;5010249;28;20589;-69
2023/12/04 06:59:19;;;;;;;24.90;15.87;;;;;;;-5.48;65.18;96097.13;5004875;28;20650;-70
2023/12/04 07:01:45;;;;;;;29.97;16.00;;;;;;;-5.67;65.67;96098.56;5000998;28;20262;-68
2023/12/04 07:04:10;;;;;;;33.70;16.70;;;;;;;-6.08;66.19;96088.59;5003662;28;20488;-70
2023/12/04 07:06:37;;;;;;;30.80;17.43;;;;;;;-6.06;67.49;96084.38;5005812;28;20192;-70
2023/12/04 07:09:02;;;;;;;24.10;15.73;;;;;;;-6.11;67.54;96085.16;5006765;28;20187;-68
2023/12/04 07:11:28;;;;;;;28.73;16.30;;;;;;;-5.95;66.49;96069.22;4998113;28;21074;-68
2023/12/04 07:13:53;;;;;;;33.90;18.60;;;;;;;-6.06;67.04;96069.06;4999249;28;20184;-69
2023/12/04 07:16:18;;;;;;;26.70;15.47;;;;;;;-5.93;66.36;96070.06;4995051;28;20181;-69
2023/12/04 07:18:44;;;;;;;30.60;16.50;;;;;;;-5.72;65.45;96073.75;5000380;28;20191;-69
2023/12/04 07:21:09;;;;;;;22.17;12.07;;;;;;;-3.46;86.59;96053.69;5008614;28;20825;-69
2023/12/04 07:23:35;;;;;;;26.23;12.87;;;;;;;-3.84;85.65;96062.03;5006390;28;20175;-68
2023/12/04 07:26:00;;;;;;;35.03;19.27;;;;;;;-3.28;70.15;96058.06;4999758;28;20220;-68
2023/12/04 07:28:26;;;;;;;32.70;16.80;;;;;;;-5.35;65.14;96064.88;4992308;28;20657;-69
2023/12/04 07:30:51;;;;;;;37.83;18.30;;;;;;;-5.80;66.37;96068.53;5002628;28;20168;-69
2023/12/04 07:33:17;;;;;;;30.83;15.83;;;;;;;-5.53;66.19;96068.03;4993031;28;20185;-69
2023/12/04 07:35:43;;;;;;;31.03;17.63;;;;;;;-6.35;66.45;96077.94;4988149;28;20336;-69
2023/12/04 07:38:08;;;;;;;32.87;17.83;;;;;;;-6.47;67.64;96063.28;4989064;28;20330;-69
2023/12/04 07:40:34;;;;;;;36.37;18.77;;;;;;;-5.95;68.01;96064.13;4994643;28;20225;-69
2023/12/04 07:42:59;;;;;;;32.77;17.33;;;;;;;-5.60;66.05;96063.69;5003115;28;20179;-69
2023/12/04 07:45:24;;;;;;;39.27;17.57;;;;;;;-5.70;66.91;96067.81;4998263;28;20196;-70
2023/12/04 07:47:50;;;;;;;30.83;18.30;;;;;;;-6.09;66.39;96073.28;4994590;28;20648;-69
2023/12/04 07:50:16;;;;;;;28.73;15.63;;;;;;;-6.69;66.47;96075.69;4993390;28;20564;-70
2023/12/04 07:52:41;;;;;;;30.60;17.50;;;;;;;-6.70;68.69;96075.69;5008396;28;20231;-69
2023/12/04 07:55:07;;;;;;;37.07;21.00;;;;;;;-6.61;68.57;96079.25;4999425;28;20207;-68
2023/12/04 07:57:32;;;;;;;28.53;17.57;;;;;;;-6.72;67.73;96079.88;5002222;28;20619;-68
2023/12/04 07:59:58;;;;;;;31.37;17.80;;;;;;;-6.24;67.06;96069.63;5004787;28;20184;-69
2023/12/04 08:02:23;;;;;;;39.63;19.40;;;;;;;-5.88;65.66;96076.13;4988381;28;20211;-69
2023/12/04 08:04:49;;;;;;;32.80;18.70;;;;;;;-5.93;65.67;96075.16;4988592;28;20215;-71
2023/12/04 08:07:14;;;;;;;39.67;19.13;;;;;;;-5.84;65.87;96077.00;4994401;28;20267;-69
2023/12/04 08:09:41;;;;;;;36.10;19.17;;;;;;;-5.99;66.15;96075.97;5001385;28;20183;-69
2023/12/04 08:12:06;;;;;;;39.70;19.40;;;;;;;-5.81;64.77;96065.13;5005278;28;20200;-70
2023/12/04 08:14:32;;;;;;;40.00;19.00;;;;;;;-5.49;64.25;96066.41;4996629;28;20415;-70
2023/12/04 08:16:58;;;;;;;33.40;18.80;;;;;;;-5.57;65.33;96059.50;4989521;28;20201;-69
2023/12/04 08:19:23;;;;;;;35.90;19.80;;;;;;;-5.53;65.67;96056.16;4994487;28;20188;-71
2023/12/04 08:21:49;;;;;;;31.93;20.00;;;;;;;-6.09;66.12;96050.28;4997095;28;20176;-70
2023/12/04 08:24:18;;;;;;;32.90;19.20;;;;;;;-5.87;66.72;96048.84;4988291;28;20192;-69
2023/12/04 08:26:43;;;;;;;30.80;18.20;;;;;;;-5.81;67.23;96044.69;4990534;28;20220;-69
2023/12/04 08:29:09;;;;;;;30.27;16.73;;;;;;;-5.45;65.45;96035.78;4998220;28;20987;-69
2023/12/04 08:31:34;;;;;;;32.47;17.70;;;;;;;-5.54;65.66;96043.34;4995581;28;20196;-68
2023/12/04 08:33:59;;;;;;;35.10;16.43;;;;;;;-5.43;64.64;96041.78;5001492;28;20176;-69
2023/12/04 08:36:25;;;;;;;37.63;20.07;;;;;;;-5.39;64.17;96037.53;5005757;28;20202;-70
2023/12/04 08:38:50;;;;;;;34.77;18.10;;;;;;;-5.64;64.50;96039.81;5016284;28;20262;-68
2023/12/04 08:41:15;;;;;;;31.33;16.57;;;;;;;-5.24;64.67;96021.53;4997433;28;20202;-69
2023/12/04 08:43:41;;;;;;;29.67;17.40;;;;;;;-5.22;64.55;96030.06;5005081;28;20219;-68
2023/12/04 08:46:07;;;;;;;31.43;17.20;;;;;;;-5.23;64.33;96038.59;5002760;28;20208;-70
2023/12/04 08:48:32;;;;;;;28.87;17.53;;;;;;;-5.07;63.54;96032.81;5002026;28;20273;-69
2023/12/04 08:50:58;;;;;;;33.27;18.00;;;;;;;-5.08;62.92;96046.41;4999356;28;20523;-69
2023/12/04 08:53:24;;;;;;;31.70;18.37;;;;;;;-5.90;64.72;96051.38;5001543;28;20182;-70
2023/12/04 08:55:52;;;;;;;28.03;17.10;;;;;;;-5.53;66.23;96047.59;4999273;28;20193;-68
2023/12/04 08:58:17;;;;;;;34.93;18.47;;;;;;;-5.93;66.60;96030.88;4992329;28;20193;-69
2023/12/04 09:00:42;;;;;;;32.70;19.37;;;;;;;-5.51;66.90;96034.84;4991394;28;20447;-68
2023/12/04 09:03:10;;;;;;;38.17;20.70;;;;;;;-5.47;65.41;96013.59;4999600;28;20258;-69
2023/12/04 09:05:36;;;;;;;31.03;18.00;;;;;;;-5.87;66.17;96007.97;4992354;28;20582;-68
2023/12/04 09:08:01;;;;;;;37.90;18.10;;;;;;;-5.93;67.80;96003.63;5009907;28;20395;-67
2023/12/04 09:10:27;;;;;;;33.70;17.40;;;;;;;-5.45;66.69;96009.34;5009727;28;20466;-68
2023/12/04 09:12:52;;;;;;;33.00;19.67;;;;;;;-5.51;66.34;96017.78;5002403;28;20160;-67
2023/12/04 09:15:17;;;;;;;36.20;18.90;;;;;;;-5.15;65.31;96007.16;4992106;28;20894;-68
2023/12/04 09:17:43;;;;;;;31.37;17.57;;;;;;;-5.43;64.83;96012.75;4990709;28;20200;-69
2023/12/04 09:20:08;;;;;;;31.47;19.80;;;;;;;-5.80;66.14;96009.78;4998561;28;20191;-69
2023/12/04 09:22:37;;;;;;;31.67;18.33;;;;;;;-5.34;65.47;96010.31;5009223;28;20883;-68
2023/12/04 09:25:04;;;;;;;28.33;16.60;;;;;;;-5.79;65.43;96011.47;4999867;28;20203;-68
2023/12/04 09:27:30;;;;;;;36.13;17.50;;;;;;;-5.83;66.25;96022.53;4997801;28;20436;-67
2023/12/04 09:29:55;;;;;;;33.57;19.10;;;;;;;-5.64;66.48;96013.38;5001310;28;20478;-66
2023/12/04 09:32:21;;;;;;;38.13;19.37;;;;;;;-5.71;67.54;96029.50;5000332;28;20263;-68
2023/12/04 09:34:46;;;;;;;33.67;20.80;;;;;;;-5.48;66.54;96032.31;5000864;28;21000;-69
2023/12/04 09:37:12;;;;;;;33.20;18.33;;;;;;;-5.56;67.00;96019.44;5009944;28;20257;-70
2023/12/04 09:39:37;;;;;;;34.47;17.80;;;;;;;-5.11;66.18;96015.69;5010039;28;20190;-70
2023/12/04 09:42:03;;;;;;;30.63;16.80;;;;;;;-4.65;65.41;96011.03;5007689;28;20256;-68
2023/12/04 09:44:30;;;;;;;33.77;17.63;;;;;;;-4.39;63.13;96010.38;4996891;28;20638;-68
2023/12/04 09:46:56;;;;;;;47.80;20.90;;;;;;;-4.39;63.83;96013.81;5010063;28;20227;-70
2023/12/04 09:49:22;;;;;;;37.67;19.70;;;;;;;-4.29;63.21;96018.16;5009168;28;20461;-67
2023/12/04 09:51:48;;;;;;;32.00;19.10;;;;;;;-3.96;62.51;96020.94;5010070;28;20182;-68
2023/12/04 09:54:17;;;;;;;38.33;19.10;;;;;;;-3.98;61.36;96014.94;5009434;28;20724;-68
2023/12/04 09:56:43;;;;;;;40.33;21.10;;;;;;;-4.24;61.88;96010.50;5008784;28;20210;-69
2023/12/04 09:59:12;;;;;;;41.37;19.20;;;;;;;-4.74;64.35;95996.44;5001410;28;20510;-68
2023/12/04 10:01:40;;;;;;;37.60;20.77;;;;;;;-4.12;63.30;95992.63;5009476;28;20719;-68
2023/12/04 10:04:06;;;;;;;35.27;19.47;;;;;;;-4.19;62.75;95972.09;5008648;28;20470;-68
2023/12/04 10:06:32;;;;;;;32.67;17.37;;;;;;;-4.55;63.69;95983.81;5008381;28;20644;-68
2023/12/04 10:08:58;;;;;;;38.37;20.50;;;;;;;-4.92;64.90;95981.75;5008729;28;20443;-68
2023/12/04 10:11:26;;;;;;;37.13;19.70;;;;;;;-5.16;65.99;95978.97;5007372;28;20968;-68
2023/12/04 10:13:53;;;;;;;33.77;20.57;;;;;;;-4.74;64.73;95970.00;5008732;28;20873;-69
2023/12/04 10:16:36;;;;;;;35.90;19.73;;;;;;;-4.58;65.32;95966.72;5007603;28;20431;-70
2023/12/04 10:19:20;;;;;;;35.97;19.93;;;;;;;-3.50;63.06;95955.34;5008917;28;20419;-68
2023/12/04 10:21:47;;;;;;;36.50;19.90;;;;;;;-3.60;61.24;95957.88;5009452;28;20430;-69
2023/12/04 10:24:26;;;;;;;36.20;18.13;;;;;;;-3.36;62.20;95950.25;5008937;28;20469;-69
2023/12/04 10:26:51;;;;;;;34.50;20.13;;;;;;;-3.02;61.02;95956.34;5008837;28;21094;-67
2023/12/04 10:29:17;;;;;;;34.80;20.73;;;;;;;-2.86;59.78;95949.53;5008560;28;20407;-67
2023/12/04 10:31:42;;;;;;;31.83;20.37;;;;;;;-2.85;59.49;95933.25;5008690;28;20248;-66
2023/12/04 10:34:09;;;;;;;35.40;21.30;;;;;;;-2.56;59.94;95924.69;5006139;28;20231;-68
2023/12/04 10:36:35;;;;;;;41.27;21.20;;;;;;;-2.80;60.07;95923.84;4999120;28;20200;-68
2023/12/04 10:39:04;;;;;;;32.97;20.27;;;;;;;-2.69;61.30;95918.72;4996851;28;20526;-68
2023/12/04 10:41:30;;;;;;;33.47;19.40;;;;;;;-3.47;60.87;95911.75;5008095;28;20411;-70
2023/12/04 10:43:57;;;;;;;36.10;21.93;;;;;;;-3.68;63.46;95886.06;4991614;28;20416;-69
2023/12/04 10:46:24;;;;;;;34.30;20.17;;;;;;;-4.17;65.00;95889.28;4989236;28;20527;-68
2023/12/04 10:48:49;;;;;;;41.27;21.13;;;;;;;-4.50;66.37;95889.94;5002655;28;20175;-68
2023/12/04 10:51:17;;;;;;;36.83;21.70;;;;;;;-4.18;64.88;95902.94;5000028;28;20440;-68
2023/12/04 10:53:43;;;;;;;32.43;19.87;;;;;;;-3.60;64.92;95898.91;4989129;28;20235;-68
2023/12/04 10:56:20;;;;;;;35.70;21.80;;;;;;;-3.01;63.01;95895.59;5004763;28;20415;-68
2023/12/04 10:58:50;;;;;;;40.30;23.17;;;;;;;-3.51;64.13;95886.09;5008556;28;20223;-69
2023/12/04 11:01:18;;;;;;;34.47;20.80;;;;;;;-3.71;64.54;95871.53;5008393;28;20454;-68
2023/12/04 11:03:49;;;;;;;38.10;22.30;;;;;;;-3.55;63.12;95869.00;5007963;28;20411;-69
2023/12/04 11:06:18;;;;;;;35.83;22.23;;;;;;;-3.94;64.39;95855.22;5007473;28;20450;-68
2023/12/04 11:08:48;;;;;;;35.93;20.90;;;;;;;-3.85;65.69;95855.22;5007944;28;20414;-67
2023/12/04 11:11:18;;;;;;;39.57;24.07;;;;;;;-3.94;64.21;95845.81;4999328;28;20480;-68